Flight Track Log - Related Links

Times and Time Zones

All times are in EDT time to prevent confusion due to time zone crossing. See the N81ER flight status page for this flight to view local times or setup timezone preferences in your user account.

Time Position Orientation Groundspeed Altitude Reporting Facility
EDT Latitude Longitude Course Direction KTS MPH feet Rate Location/Type
Fri 06:00:33 PM 39.4203 -87.3667 48° Northeast 204 235 4,600  Level Indianapolis Center
Fri 06:01:35 PM 39.4825 -87.3744 354° North 261 300 9,100 3,871 Climbing Indianapolis Center
Fri 06:02:37 PM 39.5358 -87.3050 45° Northeast 273 314 12,600 3,048 Climbing Indianapolis Center
Fri 06:03:39 PM 39.5950 -87.2208 48° Northeast 305 351 15,400 2,613 Climbing Indianapolis Center
Fri 06:04:41 PM 39.6706 -87.1128 48° Northeast 337 388 18,000 2,177 Climbing Indianapolis Center
Fri 06:05:43 PM 39.7406 -87.0128 48° Northeast 362 417 19,900 1,984 Climbing Indianapolis Center
Fri 06:06:00 PM 39.7751 -86.8500 48° Northeast  Level FlightAware Approximate
Fri 06:06:45 PM 39.8108 -86.9136 47° Northeast 368 423 22,100  Level Indianapolis Center
Fri 06:07:48 PM 39.8831 -86.8108 48° Northeast 376 433 23,900 1,824 Climbing Indianapolis Center
Fri 06:08:50 PM 39.9567 -86.7025 48° Northeast 389 448 25,900 1,500 Climbing Indianapolis Center
Fri 06:09:52 PM 40.0325 -86.5925 48° Northeast 398 458 27,000 532 Climbing Indianapolis Center
Fri 06:10:54 PM 40.1158 -86.4728 48° Northeast 432 497 27,000  Level Indianapolis Center
Fri 06:11:56 PM 40.1972 -86.3547 48° Northeast 432 497 27,000  Level Chicago Center
Fri 06:12:58 PM 40.2925 -86.2156 48° Northeast 434 499 27,000  Level Chicago Center
Fri 06:14:00 PM 40.3719 -86.0964 49° Northeast 431 496 27,000  Level Chicago Center
Fri 06:15:02 PM 40.4533 -85.9778 48° Northeast 432 497 27,000  Level Chicago Center
Fri 06:16:04 PM 40.5342 -85.8583 48° Northeast 434 499 27,000 -339 Level Chicago Center
Fri 06:17:06 PM 40.6147 -85.7458 47° Northeast 424 488 26,300 -823 Descending Chicago Center
Fri 06:18:08 PM 40.6989 -85.6622 37° Northeast 408 470 25,300 -1,113 Descending Chicago Center
Fri 06:19:10 PM 40.8050 -85.5539 38° Northeast 403 464 24,000 -629 Descending Chicago Center
Fri 06:20:12 PM 40.8936 -85.4642 37° Northeast 403 464 24,000 -435 Level Chicago Center
Fri 06:21:14 PM 40.9828 -85.3767 37° Northeast 401 461 23,100 -919 Descending Chicago Center
Fri 06:22:16 PM 41.0675 -85.2917 37° Northeast 391 450 22,100 -1,016 Descending Chicago Center
Fri 06:23:18 PM 41.1531 -85.2081 36° Northeast 385 443 21,000 -532 Descending Chicago Center
Fri 06:24:20 PM 41.2522 -85.1058 38° Northeast 380 437 21,000  Level Chicago Center
Fri 06:25:22 PM 41.3450 -85.0467 26° Northeast 381 438 21,000  Level Chicago Center
Fri 06:26:24 PM 41.4397 -85.0081 17° North 363 418 21,000  Level Chicago Center
Fri 06:27:27 PM 41.5372 -84.9717 16° North 367 422 21,000 -233 Level Chicago Center
Fri 06:28:33 PM 41.6531 -84.9078 22° Northeast 364 419 20,500 -1,095 Descending Cleveland Center
Fri 06:29:33 PM 41.7056 -84.7889 59° Northeast 346 398 18,700 -1,750 Descending Cleveland Center
Fri 06:30:33 PM 41.7556 -84.6725 60° Northeast 351 404 17,000 -1,650 Descending Cleveland Center
Fri 06:31:33 PM 41.8014 -84.5583 62° Northeast 351 404 15,400 -1,550 Descending Cleveland Center
Fri 06:32:33 PM 41.8511 -84.4444 60° Northeast 346 398 13,900 -1,500 Descending Cleveland Center
Fri 06:33:33 PM 41.8944 -84.3325 62° Northeast 339 390 12,400 -1,469 Descending Cleveland Center
Fri 06:34:11 PM 41.9239 -84.2644 60° Northeast 335 386 11,500 -1,200 Descending Cleveland Center
Fri 06:34:33 PM 41.9311 -84.2314 74° East 334 384 11,200 -1,024 Descending Cleveland Center
Fri 06:35:33 PM 41.9739 -84.1278 61° Northeast 327 376 10,100 -1,100 Descending Cleveland Center
Fri 06:36:33 PM 42.0428 -84.0589 37° Northeast 307 353 9,000 -1,150 Descending Cleveland Center
Fri 06:37:33 PM 42.1094 -83.9897 38° Northeast 296 341 7,800 -1,200 Descending Cleveland Center
Fri 06:38:33 PM 42.1658 -83.9142 45° Northeast 296 341 6,600 -1,200 Descending Cleveland Center
Fri 06:39:33 PM 42.2244 -83.8389 44° Northeast 291 335 5,400 -1,200 Descending Cleveland Center
Fri 06:40:43 PM 42.3017 -83.7556 39° Northeast 279 321 4,000 -641 Descending Cleveland Center
Fri 06:41:44 PM 42.3619 -83.6856 41° Northeast 282 325 4,000  Level Cleveland Center
Fri 06:42:45 PM 42.4222 -83.6156 41° Northeast 283 326 4,000  Level Cleveland Center
Fri 06:43:46 PM 42.4825 -83.5450 41° Northeast 286 329 4,000 -443 Level Cleveland Center
Fri 06:44:47 PM 42.5447 -83.4775 39° Northeast 273 314 3,100 -689 Descending Cleveland Center
Fri 06:45:48 PM 42.6025 -83.4181 37° Northeast 246 283 2,600 -541 Descending Cleveland Center
Fri 06:46:49 PM 42.6472 -83.3722 37° Northeast 198 228 2,000 -492 Descending Cleveland Center
Fri 06:47:50 PM 42.6658 -83.3786 346° North 109 125 1,600 -393 Descending Cleveland Center
Fri 06:49:00 PM 42.6500 -83.4167 270° West  Level FlightAware Approximate

Login

Don't have an account? Register now (free) for customized features, flight alerts, and more!